Time;durP1;ratioP1;P1;durP2;ratioP2;P2;SDS_P1;SDS_P2;PMS_P1;PMS_P2;Temp;Humidity;BMP_temperature;BMP_pressure;BME280_temperature;BME280_humidity;BME280_pressure;Samples;Min_cycle;Max_cycle;Signal;HPM_P1;HPM_P2
2022/10/17 00:02:02;;;;;;;;;11.25;9.25;;;;;20.13;70.15;100726.78;4995701;28;46301;-78
2022/10/17 00:04:27;;;;;;;;;11.75;10.25;;;;;20.11;70.21;100735.75;4995680;28;46361;-78
2022/10/17 00:10:15;;;;;;;;;12.00;11.00;;;;;20.10;70.10;100731.41;4995707;28;45708;-79
2022/10/17 00:12:40;;;;;;;;;10.25;9.75;;;;;20.11;70.12;100732.25;4995522;28;45475;-78
2022/10/17 00:15:07;;;;;;;;;11.00;10.75;;;;;20.10;70.21;100734.06;4995464;28;45522;-79
2022/10/17 00:17:33;;;;;;;;;9.50;9.00;;;;;20.09;70.11;100745.72;4995642;28;45545;-79
2022/10/17 00:19:59;;;;;;;;;10.25;10.25;;;;;20.10;70.06;100738.56;4995798;28;45485;-79
2022/10/17 00:25:46;;;;;;;;;11.00;10.50;;;;;20.10;70.25;100744.72;4995063;28;45713;-79
2022/10/17 00:28:14;;;;;;;;;11.50;9.25;;;;;20.10;70.07;100735.91;4995517;28;45616;-80
2022/10/17 00:30:40;;;;;;;;;10.00;9.00;;;;;20.06;70.32;100738.06;4995702;28;45652;-78
2022/10/17 00:33:05;;;;;;;;;11.00;9.50;;;;;20.08;69.79;100741.38;4995120;28;46420;-79
2022/10/17 00:35:31;;;;;;;;;9.00;8.75;;;;;20.10;70.18;100750.03;4993510;28;48061;-78
2022/10/17 00:37:57;;;;;;;;;9.25;8.25;;;;;20.06;69.98;100747.88;4995292;28;45762;-79
2022/10/17 00:40:22;;;;;;;;;9.75;8.75;;;;;20.09;69.55;100755.53;4995212;28;45647;-79
2022/10/17 00:42:50;;;;;;;;;9.00;9.00;;;;;20.08;69.90;100753.88;4994994;28;45727;-78
2022/10/17 00:45:20;;;;;;;;;11.00;9.00;;;;;20.07;69.84;100761.03;4995000;28;46018;-78
2022/10/17 00:47:59;;;;;;;;;9.25;9.25;;;;;20.09;70.07;100760.84;4995197;28;45736;-78
2022/10/17 00:50:27;;;;;;;;;10.50;9.75;;;;;20.05;69.83;100749.72;4977539;28;45471;-78
2022/10/17 00:56:15;;;;;;;;;10.50;10.00;;;;;20.05;69.91;100747.06;4994638;28;45649;-78
2022/10/17 00:58:41;;;;;;;;;11.00;8.75;;;;;20.05;69.67;100743.56;4995142;28;45538;-78
2022/10/17 01:01:06;;;;;;;;;9.00;9.00;;;;;20.05;70.11;100743.56;4995045;28;45496;-78
2022/10/17 01:03:32;;;;;;;;;8.75;8.75;;;;;20.03;69.97;100746.38;4994771;28;46303;-79
2022/10/17 01:05:57;;;;;;;;;10.50;9.50;;;;;20.02;70.05;100751.88;4994857;28;45981;-78
2022/10/17 01:08:23;;;;;;;;;10.25;9.25;;;;;20.01;69.89;100751.06;4994863;28;45509;-78
2022/10/17 01:10:59;;;;;;;;;10.00;10.00;;;;;20.04;69.84;100758.69;4994963;28;45467;-79
2022/10/17 01:13:36;;;;;;;;;11.00;10.00;;;;;20.01;69.98;100745.72;4994357;28;45674;-78
2022/10/17 01:16:28;;;;;;;;;9.00;9.00;;;;;19.99;69.82;100733.56;4994626;28;46121;-80
2022/10/17 01:19:15;;;;;;;;;7.50;7.50;;;;;20.02;69.73;100749.22;4993331;28;45743;-79
2022/10/17 01:21:53;;;;;;;;;13.25;11.75;;;;;19.98;69.86;100750.53;4976345;28;46002;-79
2022/10/17 01:24:27;;;;;;;;;9.00;9.00;;;;;19.97;69.80;100763.00;4994555;28;46302;-79
2022/10/17 01:26:58;;;;;;;;;9.25;8.25;;;;;19.95;69.80;100756.19;4994538;28;46100;-79
2022/10/17 01:29:46;;;;;;;;;8.00;7.50;;;;;19.95;69.67;100770.31;4994527;28;45644;-79
2022/10/17 01:32:36;;;;;;;;;9.25;9.00;;;;;19.94;69.86;100771.31;4994705;28;45763;-78
2022/10/17 01:35:09;;;;;;;;;7.75;7.75;;;;;19.94;69.86;100768.66;4994060;28;46491;-78
2022/10/17 01:37:46;;;;;;;;;9.00;8.75;;;;;19.94;69.79;100763.34;4994271;28;45981;-78
2022/10/17 01:40:21;;;;;;;;;10.50;9.25;;;;;19.93;69.63;100761.66;4994090;28;45512;-78
2022/10/17 01:42:55;;;;;;;;;10.50;10.00;;;;;19.94;69.54;100773.16;4994292;28;45613;-79
2022/10/17 01:45:34;;;;;;;;;10.75;9.75;;;;;19.92;70.08;100770.63;4994040;28;45548;-77
2022/10/17 01:48:06;;;;;;;;;9.00;8.75;;;;;19.93;69.86;100774.97;4994347;28;46090;-78
2022/10/17 01:50:36;;;;;;;;;10.00;10.00;;;;;19.92;69.47;100775.97;4994381;28;45682;-78
2022/10/17 01:53:12;;;;;;;;;7.00;6.75;;;;;19.87;69.44;100770.31;4994356;28;45647;-78
2022/10/17 01:55:41;;;;;;;;;9.00;8.75;;;;;19.89;69.37;100776.31;4993980;28;45545;-77
2022/10/17 01:58:13;;;;;;;;;9.00;8.00;;;;;19.86;69.33;100773.16;4994093;28;46620;-78
2022/10/17 02:00:43;;;;;;;;;9.00;8.00;;;;;19.87;69.33;100774.78;4994423;28;45740;-77
2022/10/17 02:03:14;;;;;;;;;10.25;8.50;;;;;19.87;69.54;100772.13;4994112;28;45558;-77
2022/10/17 02:05:42;;;;;;;;;8.25;7.75;;;;;19.86;69.13;100779.31;4994129;28;46310;-79
2022/10/17 02:08:08;;;;;;;;;9.00;8.00;;;;;19.84;69.20;100772.47;4994240;28;46517;-78
2022/10/17 02:10:51;;;;;;;;;8.50;7.50;;;;;19.83;69.29;100770.81;4995008;28;45635;-78
2022/10/17 02:13:54;;;;;;;;;8.00;8.00;;;;;19.84;69.15;100775.13;4997981;28;45646;-77
2022/10/17 02:16:41;;;;;;;;;8.75;7.75;;;;;19.84;69.29;100777.78;4997461;28;46304;-78
2022/10/17 02:19:42;;;;;;;;;8.25;8.00;;;;;19.82;69.07;100777.94;4997467;28;45957;-79
2022/10/17 02:25:42;;;;;;;;;8.00;8.00;;;;;19.81;69.03;100770.16;4994182;28;45639;-79
2022/10/17 02:28:50;;;;;;;;;8.25;7.25;;;;;19.80;69.04;100760.50;4993866;28;45909;-78
2022/10/17 02:31:21;;;;;;;;;9.00;8.25;;;;;19.80;69.19;100757.84;4895158;29;46423;-79
2022/10/17 02:34:01;;;;;;;;;10.00;8.75;;;;;19.78;68.67;100751.84;4897574;29;45889;-79
2022/10/17 02:36:34;;;;;;;;;9.25;7.75;;;;;19.77;68.76;100753.69;4898717;29;45723;-78
2022/10/17 02:42:35;;;;;;;;;9.00;8.50;;;;;19.75;68.80;100750.38;4896976;28;45799;-79
2022/10/17 02:45:02;;;;;;;;;8.00;7.50;;;;;19.74;68.75;100754.03;4898290;29;45504;-79
2022/10/17 02:47:36;;;;;;;;;7.75;6.75;;;;;19.72;68.92;100763.97;4898633;29;45730;-79
2022/10/17 02:50:02;;;;;;;;;10.00;9.00;;;;;19.72;68.61;100766.63;4898124;29;45669;-80
2022/10/17 02:52:39;;;;;;;;;8.50;8.00;;;;;19.73;69.15;100765.66;4881946;29;47106;-79
2022/10/17 02:55:29;;;;;;;;;6.00;6.00;;;;;19.72;68.95;100781.75;4898412;29;45834;-79
2022/10/17 02:57:59;;;;;;;;;6.75;5.50;;;;;19.71;68.84;100772.94;4898337;28;45826;-79
2022/10/17 03:00:27;;;;;;;;;9.75;8.50;;;;;19.73;68.66;100778.94;4898209;29;45870;-80
2022/10/17 03:02:53;;;;;;;;;7.25;7.00;;;;;19.74;68.88;100777.13;4898219;29;46101;-79
2022/10/17 03:05:24;;;;;;;;;6.25;6.25;;;;;19.73;69.00;100773.63;4950030;28;45814;-79
2022/10/17 03:07:50;;;;;;;;;7.00;7.00;;;;;19.72;68.64;100763.97;4980205;28;45815;-79
2022/10/17 03:10:16;;;;;;;;;8.00;6.75;;;;;19.73;68.71;100770.13;4996721;28;45642;-79
2022/10/17 03:12:41;;;;;;;;;9.75;8.75;;;;;19.72;68.82;100776.44;4996469;28;46200;-79
2022/10/17 03:15:07;;;;;;;;;8.00;7.00;;;;;19.72;68.96;100776.44;4978753;28;45655;-79
2022/10/17 03:17:34;;;;;;;;;12.00;9.50;;;;;19.68;68.62;100768.81;4996784;28;45612;-79
2022/10/17 03:19:59;;;;;;;;;6.25;5.75;;;;;19.70;68.63;100774.78;4996552;28;46461;-79
2022/10/17 03:22:24;;;;;;;;;8.50;7.00;;;;;19.70;68.83;100769.44;4996513;28;46218;-79
2022/10/17 03:24:50;;;;;;;;;9.00;8.75;;;;;19.70;68.60;100779.28;4996244;28;45567;-79
2022/10/17 03:27:15;;;;;;;;;7.75;7.00;;;;;19.70;69.13;100777.44;4996700;28;45516;-79
2022/10/17 03:29:40;;;;;;;;;9.25;8.25;;;;;19.70;68.89;100784.59;4996471;28;45579;-79
2022/10/17 03:32:06;;;;;;;;;7.00;7.00;;;;;19.68;68.61;100791.91;4996350;28;45504;-79
2022/10/17 03:34:31;;;;;;;;;7.50;7.25;;;;;19.65;68.79;100787.72;4996285;28;45503;-79
2022/10/17 03:36:56;;;;;;;;;8.75;8.75;;;;;19.66;68.81;100796.53;4996542;28;45822;-79
2022/10/17 03:42:44;;;;;;;;;7.00;7.00;;;;;19.67;68.80;100822.97;4994655;28;46137;-78
2022/10/17 03:45:09;;;;;;;;;7.75;7.25;;;;;19.64;68.65;100815.31;4996322;28;45596;-79
2022/10/17 03:47:34;;;;;;;;;7.00;7.00;;;;;19.66;68.61;100823.94;4996474;28;45777;-79
2022/10/17 03:50:00;;;;;;;;;7.75;7.00;;;;;19.64;68.66;100811.84;4996388;28;45481;-79
2022/10/17 03:52:25;;;;;;;;;9.00;8.00;;;;;19.67;68.59;100828.28;4978250;28;47276;-78
2022/10/17 03:58:12;;;;;;;;;9.00;8.00;;;;;19.67;68.23;100830.09;4996039;28;45657;-79
2022/10/17 04:00:38;;;;;;;;;9.50;7.00;;;;;19.65;68.19;100829.44;4996299;28;46644;-79
2022/10/17 04:03:04;;;;;;;;;7.00;6.00;;;;;19.65;68.40;100840.06;4995868;28;45588;-79
2022/10/17 04:05:29;;;;;;;;;9.00;7.75;;;;;19.66;68.16;100839.06;4996181;28;45695;-79
2022/10/17 04:07:55;;;;;;;;;8.00;7.00;;;;;19.64;68.48;100841.06;4996119;28;45668;-80
2022/10/17 04:10:20;;;;;;;;;6.25;6.25;;;;;19.62;68.21;100841.22;4995804;28;45623;-80
2022/10/17 04:12:45;;;;;;;;;10.75;7.75;;;;;19.59;68.15;100838.91;4995671;28;45581;-79
2022/10/17 04:15:11;;;;;;;;;7.00;7.00;;;;;19.62;68.10;100838.56;4995596;28;45482;-80
2022/10/17 04:17:36;;;;;;;;;10.00;9.00;;;;;19.57;68.04;100830.25;4995970;28;45531;-80
2022/10/17 04:20:02;;;;;;;;;9.00;8.00;;;;;19.58;68.09;100833.75;4995786;28;45509;-79
2022/10/17 04:22:27;;;;;;;;;7.00;7.00;;;;;19.57;68.24;100837.38;4996678;28;45589;-79
2022/10/17 04:28:14;;;;;;;;;5.00;4.00;;;;;19.57;67.91;100846.19;4997866;28;45607;-79
2022/10/17 04:30:40;;;;;;;;;7.00;7.00;;;;;19.57;68.01;100848.84;4996894;28;45594;-80
2022/10/17 04:33:06;;;;;;;;;7.75;7.25;;;;;19.57;68.01;100851.50;4993939;28;46091;-81
2022/10/17 04:35:31;;;;;;;;;8.25;7.50;;;;;19.58;68.00;100852.34;4995556;28;45628;-79
2022/10/17 04:37:57;;;;;;;;;7.75;7.25;;;;;19.54;67.79;100859.78;4995465;28;45547;-79
2022/10/17 04:43:44;;;;;;;;;7.75;7.00;;;;;19.54;67.96;100873.09;4993042;28;45783;-80
2022/10/17 04:46:13;;;;;;;;;8.50;8.00;;;;;19.53;67.71;100868.78;4995373;28;45705;-79
2022/10/17 04:48:39;;;;;;;;;9.50;8.25;;;;;19.51;67.82;100857.47;4995454;28;45546;-80
2022/10/17 04:51:09;;;;;;;;;9.25;7.25;;;;;19.53;67.48;100870.59;4994912;28;46812;-79
2022/10/17 04:53:36;;;;;;;;;7.75;7.25;;;;;19.50;67.50;100874.41;4994952;28;46469;-81
2022/10/17 04:56:08;;;;;;;;;7.00;6.00;;;;;19.53;67.66;100875.94;4994279;28;45489;-79
2022/10/17 04:58:33;;;;;;;;;7.50;7.50;;;;;19.53;67.50;100883.91;4995319;28;45604;-79
2022/10/17 05:01:03;;;;;;;;;7.25;7.00;;;;;19.52;67.22;100888.38;4994952;28;45821;-78
2022/10/17 05:03:28;;;;;;;;;7.00;7.00;;;;;19.52;67.54;100892.84;4994963;28;45961;-79
2022/10/17 05:05:54;;;;;;;;;7.25;6.50;;;;;19.53;67.55;100899.84;4977195;28;45621;-79
2022/10/17 05:08:19;;;;;;;;;8.00;7.00;;;;;19.53;67.40;100905.16;4995132;28;45715;-79
2022/10/17 05:14:07;;;;;;;;;7.50;7.25;;;;;19.53;67.41;100919.28;4994418;28;45943;-78
2022/10/17 05:16:37;;;;;;;;;7.00;6.25;;;;;19.53;67.49;100915.78;4994327;28;45529;-79
2022/10/17 05:19:03;;;;;;;;;8.00;6.00;;;;;19.52;67.43;100914.13;4993537;28;45631;-79
2022/10/17 05:21:29;;;;;;;;;7.00;7.00;;;;;19.52;67.52;100917.63;4994970;28;45582;-78
2022/10/17 05:23:55;;;;;;;;;5.25;5.25;;;;;19.53;67.48;100921.13;4994770;28;45969;-78
2022/10/17 05:26:22;;;;;;;;;6.00;6.00;;;;;19.51;67.47;100918.59;4994815;28;45716;-78
2022/10/17 05:28:47;;;;;;;;;8.50;7.00;;;;;19.50;67.33;100906.31;4994627;28;45861;-79
2022/10/17 05:31:13;;;;;;;;;8.00;7.00;;;;;19.51;67.24;100912.44;4997700;28;45989;-78
2022/10/17 05:33:39;;;;;;;;;7.00;7.00;;;;;19.51;67.66;100907.13;4994964;28;46333;-78
2022/10/17 05:36:06;;;;;;;;;6.25;6.25;;;;;19.51;67.90;100915.09;4994934;28;45806;-79
2022/10/17 05:38:32;;;;;;;;;9.25;8.50;;;;;19.54;67.47;100938.72;4994851;28;45734;-79
2022/10/17 05:44:19;;;;;;;;;8.25;7.25;;;;;19.53;67.66;100932.56;4993370;28;45747;-79
2022/10/17 05:46:47;;;;;;;;;8.00;8.00;;;;;19.54;67.71;100928.09;4994436;28;45599;-79
2022/10/17 05:49:13;;;;;;;;;8.00;7.50;;;;;19.51;67.62;100925.75;4994547;28;45720;-74
2022/10/17 05:51:38;;;;;;;;;7.00;7.00;;;;;19.55;67.70;100911.13;4994473;28;45623;-74
2022/10/17 05:54:05;;;;;;;;;9.25;7.75;;;;;19.55;67.65;100927.91;4993872;28;45730;-75
2022/10/17 05:56:30;;;;;;;;;10.75;9.75;;;;;19.54;67.87;100912.16;4994395;28;45860;-77
2022/10/17 05:58:55;;;;;;;;;8.00;7.25;;;;;19.53;67.72;100908.66;4976641;28;45627;-78
2022/10/17 06:01:21;;;;;;;;;10.50;9.00;;;;;19.56;67.57;100910.97;4994348;28;46615;-73
2022/10/17 06:03:46;;;;;;;;;9.00;8.00;;;;;19.56;67.91;100902.16;4994169;28;45606;-76
2022/10/17 06:06:13;;;;;;;;;7.00;7.00;;;;;19.57;67.71;100906.50;4994745;28;45497;-74
2022/10/17 06:08:38;;;;;;;;;7.50;7.25;;;;;19.57;67.78;100893.22;4997928;28;45664;-75
2022/10/17 06:14:25;;;;;;;;;7.75;7.75;;;;;19.57;67.96;100914.47;4996702;28;45988;-75
2022/10/17 06:16:50;;;;;;;;;9.75;8.25;;;;;19.57;68.22;100925.94;4997480;28;45621;-75
2022/10/17 06:19:16;;;;;;;;;8.00;7.00;;;;;19.56;67.88;100926.09;4997594;28;45604;-76
2022/10/17 06:21:41;;;;;;;;;8.00;7.75;;;;;19.57;68.10;100920.63;4997118;28;46507;-75
2022/10/17 06:24:10;;;;;;;;;8.75;8.00;;;;;19.56;68.34;100916.31;4997235;28;47231;-80
2022/10/17 06:29:57;;;;;;;;;8.00;7.50;;;;;19.56;68.10;100939.38;4997816;28;45442;-78
2022/10/17 06:32:23;;;;;;;;;9.50;8.00;;;;;19.57;68.24;100951.69;4997931;28;45625;-76
2022/10/17 06:34:48;;;;;;;;;8.50;7.50;;;;;19.56;68.48;100966.81;4999220;28;47080;-77
2022/10/17 06:37:13;;;;;;;;;8.00;7.00;;;;;19.56;68.04;100965.97;5001898;28;45529;-79
2022/10/17 06:39:39;;;;;;;;;8.00;8.00;;;;;19.55;67.89;100961.63;5002812;28;45716;-78
2022/10/17 06:42:04;;;;;;;;;9.75;9.00;;;;;19.56;68.27;100965.97;4983739;28;46720;-76
2022/10/17 06:44:30;;;;;;;;;7.75;7.75;;;;;19.55;68.12;100974.94;4981616;28;47436;-83
2022/10/17 06:46:57;;;;;;;;;10.25;8.75;;;;;19.55;68.37;100974.94;4998736;28;45616;-81
2022/10/17 06:49:23;;;;;;;;;8.50;8.00;;;;;19.53;68.13;100985.75;4999290;28;45651;-82
2022/10/17 06:51:48;;;;;;;;;10.00;9.50;;;;;19.54;68.15;100992.69;4979723;28;47593;-81
2022/10/17 06:54:14;;;;;;;;;10.50;8.75;;;;;19.53;68.08;100983.09;4997874;28;45911;-79
2022/10/17 07:00:01;;;;;;;;;10.50;9.00;;;;;19.53;67.99;101014.13;4997691;28;45751;-74
2022/10/17 07:02:26;;;;;;;;;8.50;7.50;;;;;19.53;68.34;101020.28;4996500;28;48439;-74
2022/10/17 07:04:52;;;;;;;;;9.25;7.75;;;;;19.54;68.22;101021.13;4997991;28;45592;-76
2022/10/17 07:07:17;;;;;;;;;8.25;8.00;;;;;19.54;68.15;101019.28;4997443;28;45682;-74
2022/10/17 07:09:43;;;;;;;;;8.25;7.00;;;;;19.54;68.39;101029.09;4997386;28;45524;-80
2022/10/17 07:12:08;;;;;;;;;7.25;7.25;;;;;19.54;68.07;101027.25;4997023;28;46218;-77
2022/10/17 07:14:34;;;;;;;;;9.00;8.50;;;;;19.54;68.20;101045.84;4978898;28;48322;-81
2022/10/17 07:17:00;;;;;;;;;9.00;7.75;;;;;19.54;68.12;101053.03;4995513;28;45715;-76
2022/10/17 07:19:26;;;;;;;;;8.50;8.00;;;;;19.55;68.46;101060.81;4994678;28;45509;-76
2022/10/17 07:21:52;;;;;;;;;8.25;8.00;;;;;19.57;68.45;101072.16;4996764;28;45622;-74
2022/10/17 07:24:17;;;;;;;;;12.50;9.50;;;;;19.60;68.38;101076.31;4978727;28;48738;-79
2022/10/17 07:30:05;;;;;;;;;9.75;8.50;;;;;19.61;68.19;101086.78;4996710;28;45977;-77
2022/10/17 07:32:30;;;;;;;;;9.25;7.50;;;;;19.63;68.25;101097.28;4996686;28;46385;-76
2022/10/17 07:34:55;;;;;;;;;7.50;7.50;;;;;19.64;68.37;101104.28;4996766;28;46147;-78
2022/10/17 07:37:21;;;;;;;;;8.75;8.75;;;;;19.67;68.47;101103.94;4999404;28;45685;-79
2022/10/17 07:39:46;;;;;;;;;10.25;8.25;;;;;19.69;68.31;101115.28;4997806;28;45617;-79
2022/10/17 07:45:33;;;;;;;;;8.75;8.75;;;;;19.74;68.32;101134.25;4994505;28;45913;-79
2022/10/17 07:47:58;;;;;;;;;8.25;7.50;;;;;19.75;68.20;101132.44;4997068;28;45638;-77
2022/10/17 07:50:24;;;;;;;;;9.25;9.00;;;;;19.75;68.51;101143.91;4998314;28;45658;-75
2022/10/17 07:52:50;;;;;;;;;8.00;7.75;;;;;19.78;68.33;101146.25;4997679;28;45668;-79
2022/10/17 07:55:20;;;;;;;;;8.00;7.25;;;;;19.79;68.65;101161.22;4999431;28;46510;-79
2022/10/17 07:57:45;;;;;;;;;9.50;9.00;;;;;19.81;68.53;101161.88;4996999;28;45696;-78
2022/10/17 08:00:11;;;;;;;;;11.00;9.00;;;;;19.82;68.30;101152.06;4996482;28;45693;-75
2022/10/17 08:02:36;;;;;;;;;10.75;9.00;;;;;19.83;68.40;101159.91;4996259;28;45591;-76
2022/10/17 08:05:02;;;;;;;;;11.25;7.75;;;;;19.84;68.47;101166.91;4996459;28;46989;-80
2022/10/17 08:07:29;;;;;;;;;10.00;7.75;;;;;19.80;68.48;101164.72;5005126;28;45662;-80
2022/10/17 08:09:54;;;;;;;;;11.00;9.00;;;;;19.85;68.21;101170.38;5009960;28;45259;-79
2022/10/17 08:15:41;;;;;;;;;9.50;9.00;;;;;19.86;68.67;101172.06;4997941;28;45989;-81
2022/10/17 08:18:06;;;;;;;;;10.00;8.50;;;;;19.89;68.50;101182.38;4998625;28;46028;-81
2022/10/17 08:20:32;;;;;;;;;9.50;8.75;;;;;19.91;68.26;101180.41;4999940;28;45608;-80
2022/10/17 08:22:57;;;;;;;;;11.00;8.25;;;;;19.93;68.49;101189.88;4999382;28;45896;-79
2022/10/17 08:25:23;;;;;;;;;10.00;9.75;;;;;19.97;68.31;101190.44;4998267;28;46095;-82
2022/10/17 08:27:49;;;;;;;;;9.00;8.00;;;;;19.98;68.72;101189.41;4996938;28;45603;-79
2022/10/17 08:30:15;;;;;;;;;8.50;8.50;;;;;20.00;68.49;101198.94;4995767;28;45610;-82
2022/10/17 08:32:41;;;;;;;;;9.25;8.25;;;;;20.05;68.44;101201.13;4996279;28;46776;-81
2022/10/17 08:35:07;;;;;;;;;8.00;8.00;;;;;20.07;68.52;101197.31;4996338;28;45485;-78
2022/10/17 08:37:32;;;;;;;;;8.75;8.25;;;;;20.09;68.24;101208.63;4995702;28;45667;-80
2022/10/17 08:39:57;;;;;;;;;7.75;6.75;;;;;20.13;68.39;101215.31;4995885;28;45643;-79
2022/10/17 08:45:53;;;;;;;;;0.00;0.00;;;;;20.21;68.36;101229.66;4994747;28;45720;-76
2022/10/17 08:48:23;;;;;;;;;8.50;6.50;;;;;20.22;68.18;101226.84;4995347;28;45675;-80
2022/10/17 08:50:54;;;;;;;;;5.00;5.00;;;;;20.24;68.37;101232.88;4995586;28;45710;-80
2022/10/17 08:53:44;;;;;;;;;7.50;6.50;;;;;20.27;68.21;101234.38;4995037;28;45572;-78
2022/10/17 08:56:32;;;;;;;;;6.75;6.25;;;;;20.30;68.42;101237.53;4995233;28;45580;-78
2022/10/17 08:58:57;;;;;;;;;3.50;3.25;;;;;20.32;68.17;101238.25;4977349;28;45692;-82
2022/10/17 09:01:47;;;;;;;;;5.75;5.75;;;;;20.35;68.22;101239.78;4994948;28;45770;-80
2022/10/17 09:04:30;;;;;;;;;9.00;8.25;;;;;20.38;68.31;101244.78;4994957;28;46445;-76
2022/10/17 09:07:00;;;;;;;;;6.00;6.00;;;;;20.39;68.04;101257.94;4994686;28;46751;-75
2022/10/17 09:09:35;;;;;;;;;6.00;5.00;;;;;20.42;68.06;101268.25;4994778;28;45679;-80
2022/10/17 09:12:13;;;;;;;;;7.00;6.00;;;;;20.44;68.13;101268.13;4995306;28;45808;-78
2022/10/17 09:14:53;;;;;;;;;9.00;9.00;;;;;20.43;68.13;101282.41;4994771;28;45580;-77
2022/10/17 09:17:33;;;;;;;;;5.75;5.50;;;;;20.45;68.58;101288.44;4993262;28;47703;-75
2022/10/17 09:20:17;;;;;;;;;5.50;5.50;;;;;20.46;68.21;101298.06;4977170;28;45779;-76
2022/10/17 09:22:50;;;;;;;;;7.25;7.00;;;;;20.45;68.43;101299.91;4995265;28;45667;-79
2022/10/17 09:25:18;;;;;;;;;7.50;6.50;;;;;20.45;68.66;101304.41;4977052;28;47567;-77
2022/10/17 09:27:55;;;;;;;;;8.00;7.75;;;;;20.45;68.34;101309.72;4994194;28;46232;-79
2022/10/17 09:30:32;;;;;;;;;7.00;6.00;;;;;20.45;68.66;101310.56;4994560;28;45706;-81
2022/10/17 09:32:58;;;;;;;;;5.25;4.50;;;;;20.46;68.57;101311.38;4994648;28;45533;-79
2022/10/17 09:35:26;;;;;;;;;6.00;6.00;;;;;20.47;68.77;101316.53;4994678;28;46177;-76
2022/10/17 09:37:52;;;;;;;;;7.75;6.75;;;;;20.46;68.81;101319.34;4994148;28;46379;-75
2022/10/17 09:40:30;;;;;;;;;6.75;6.75;;;;;20.45;68.97;101321.22;4976668;28;45641;-78
2022/10/17 09:42:56;;;;;;;;;7.50;6.50;;;;;20.44;69.37;101329.34;4994161;28;45901;-78
2022/10/17 09:45:24;;;;;;;;;6.00;6.00;;;;;20.45;69.36;101331.88;4992857;28;47482;-80
2022/10/17 09:48:15;;;;;;;;;5.50;4.00;;;;;20.45;69.53;101329.19;4993064;28;46455;-76
2022/10/17 09:50:43;;;;;;;;;7.00;7.00;;;;;20.46;69.45;101333.50;4977271;28;45711;-80
2022/10/17 09:53:14;;;;;;;;;9.75;6.75;;;;;20.46;69.97;101327.34;4994604;28;45569;-76
2022/10/17 09:55:47;;;;;;;;;9.00;7.00;;;;;20.49;69.76;101330.56;4994446;28;46598;-78
2022/10/17 09:58:13;;;;;;;;;8.75;6.50;;;;;20.51;69.64;101333.06;4994458;28;46465;-77
2022/10/17 10:00:45;;;;;;;;;6.75;6.75;;;;;20.55;69.60;101325.59;4994432;28;45663;-76
2022/10/17 10:03:19;;;;;;;;;10.25;7.00;;;;;20.57;69.72;101334.28;4994553;28;45708;-78
2022/10/17 10:05:58;;;;;;;;;7.75;7.50;;;;;20.60;69.98;101325.97;4994774;28;46410;-79
2022/10/17 10:08:28;;;;;;;;;9.75;8.00;;;;;20.61;69.60;101333.81;4994372;28;45893;-76
2022/10/17 10:11:03;;;;;;;;;9.00;8.25;;;;;20.62;69.79;101332.78;4994304;28;45665;-80
2022/10/17 10:13:30;;;;;;;;;8.50;8.00;;;;;20.62;70.12;101327.47;4994622;28;45549;-74
2022/10/17 10:16:13;;;;;;;;;7.75;7.75;;;;;20.64;69.60;101320.16;4994504;28;45598;-75
2022/10/17 10:18:38;;;;;;;;;9.00;7.25;;;;;20.67;70.07;101335.00;4994226;28;45807;-73
2022/10/17 10:21:08;;;;;;;;;8.75;8.75;;;;;20.66;69.59;101347.47;4994223;28;45573;-75
2022/10/17 10:23:39;;;;;;;;;10.00;8.00;;;;;20.68;70.05;101345.47;4995186;28;45783;-75
2022/10/17 10:26:13;;;;;;;;;9.00;8.25;;;;;20.70;69.95;101359.50;4995067;28;45582;-74
2022/10/17 10:28:40;;;;;;;;;8.00;7.00;;;;;20.72;70.09;101370.00;4997368;28;45911;-73
2022/10/17 10:31:08;;;;;;;;;8.00;7.75;;;;;20.73;69.91;101377.00;4998695;28;45754;-77
2022/10/17 10:33:39;;;;;;;;;10.25;9.00;;;;;20.75;70.23;101390.97;4998578;28;45531;-73
2022/10/17 10:36:06;;;;;;;;;8.00;8.00;;;;;20.76;70.39;101385.50;4997931;28;45642;-76
2022/10/17 10:38:34;;;;;;;;;8.25;8.25;;;;;20.78;69.89;101396.00;4996617;28;46076;-74
2022/10/17 10:41:11;;;;;;;;;11.25;10.50;;;;;20.80;69.82;101394.84;4994948;28;45682;-73
2022/10/17 10:43:41;;;;;;;;;11.75;11.75;;;;;20.81;70.03;101399.19;4994085;28;45512;-77
2022/10/17 10:46:22;;;;;;;;;28.25;23.75;;;;;20.84;70.13;101395.34;4993737;28;45627;-77
2022/10/17 10:48:58;;;;;;;;;15.00;13.25;;;;;20.85;70.55;101405.88;4993768;28;45590;-81
2022/10/17 10:51:32;;;;;;;;;10.00;10.00;;;;;20.86;70.03;101412.88;4993852;28;45554;-81
2022/10/17 10:54:01;;;;;;;;;13.25;12.75;;;;;20.87;70.36;101408.38;4994989;28;45552;-78
2022/10/17 11:00:04;;;;;;;;;12.25;11.50;;;;;20.91;70.12;101431.03;4996641;28;45981;-77
2022/10/17 11:02:44;;;;;;;;;10.25;9.75;;;;;20.92;70.19;101435.41;4996856;28;45605;-79
2022/10/17 11:05:22;;;;;;;;;14.25;11.75;;;;;20.92;70.24;101412.25;4995853;28;45964;-78
2022/10/17 11:07:58;;;;;;;;;11.50;10.00;;;;;20.93;70.48;101407.75;4996880;28;45654;-74
2022/10/17 11:10:37;;;;;;;;;11.75;11.00;;;;;20.95;70.38;101401.25;4997342;28;46340;-79
2022/10/17 11:16:27;;;;;;;;;15.75;13.00;;;;;21.02;70.76;101428.13;4997130;28;45604;-74
2022/10/17 11:19:12;;;;;;;;;16.75;13.75;;;;;21.03;70.46;101429.81;4996581;28;46430;-73
2022/10/17 11:21:47;;;;;;;;;14.25;12.75;;;;;21.04;70.50;101428.81;4996712;28;46129;-75
2022/10/17 11:24:39;;;;;;;;;13.75;13.50;;;;;21.06;70.63;101450.81;4996593;28;45671;-76
2022/10/17 11:27:07;;;;;;;;;15.25;13.50;;;;;21.07;70.40;101441.81;4996856;28;45647;-77
2022/10/17 11:29:35;;;;;;;;;16.75;13.25;;;;;21.10;70.58;101436.19;4996392;28;46386;-74
2022/10/17 11:32:33;;;;;;;;;12.00;12.00;;;;;21.11;70.82;101439.66;4996557;28;45924;-77
2022/10/17 11:35:17;;;;;;;;;14.75;11.00;;;;;21.12;70.95;101444.84;4996620;28;45768;-79
2022/10/17 11:37:54;;;;;;;;;13.50;13.00;;;;;21.11;70.58;101443.16;4996440;28;45609;-76
2022/10/17 11:40:50;;;;;;;;;10.50;9.00;;;;;21.14;70.58;101434.03;4996441;28;45855;-76
2022/10/17 11:43:47;;;;;;;;;12.25;12.00;;;;;21.14;70.71;101404.72;4994341;28;46175;-76
2022/10/17 11:46:22;;;;;;;;;9.25;8.25;;;;;21.15;70.53;101390.44;4988369;28;45718;-75
2022/10/17 11:48:58;;;;;;;;;11.00;10.25;;;;;21.13;70.81;101419.03;4996321;28;45587;-79
2022/10/17 11:51:24;;;;;;;;;10.00;9.75;;;;;21.13;71.02;101437.69;4996167;28;46469;-81
2022/10/17 11:54:03;;;;;;;;;10.25;10.25;;;;;21.11;70.48;101445.00;4996064;28;46097;-76
2022/10/17 11:56:55;;;;;;;;;11.25;10.25;;;;;21.12;71.05;101465.34;4996786;28;45719;-77
2022/10/17 11:59:38;;;;;;;;;11.00;10.75;;;;;21.12;70.88;101483.97;4997279;28;45589;-76
2022/10/17 12:02:16;;;;;;;;;13.50;11.75;;;;;21.11;70.77;101484.97;4997287;28;45585;-77
2022/10/17 12:04:50;;;;;;;;;14.50;13.25;;;;;21.12;70.57;101489.31;4995801;28;46271;-76
2022/10/17 12:07:25;;;;;;;;;15.75;13.50;;;;;21.12;70.92;101498.16;4995879;28;45735;-77
2022/10/17 12:09:56;;;;;;;;;11.50;11.50;;;;;21.13;70.99;101494.50;4996361;28;45813;-77
2022/10/17 12:15:43;;;;;;;;;15.75;13.25;;;;;21.10;70.83;101497.50;4996258;28;45579;-77
2022/10/17 12:18:16;;;;;;;;;14.25;13.00;;;;;21.09;70.78;101497.63;4995800;28;45628;-78
2022/10/17 12:20:41;;;;;;;;;13.50;10.25;;;;;21.10;70.74;101500.16;4996022;28;45608;-79
2022/10/17 12:23:09;;;;;;;;;11.00;11.00;;;;;21.11;71.14;101495.63;4995683;28;46191;-78
2022/10/17 12:25:38;;;;;;;;;13.00;10.50;;;;;21.07;70.59;101487.13;4995652;28;46528;-78
2022/10/17 12:31:26;;;;;;;;;11.00;9.00;;;;;21.10;71.14;101481.50;4995715;28;45664;-74
2022/10/17 12:33:52;;;;;;;;;11.25;10.75;;;;;21.12;70.66;101473.31;4995340;28;46112;-77
2022/10/17 12:36:17;;;;;;;;;11.50;10.75;;;;;21.12;70.78;101476.81;4977639;28;47920;-77
2022/10/17 12:39:05;;;;;;;;;12.75;12.25;;;;;21.12;71.00;101479.50;4995394;28;45701;-75
2022/10/17 12:41:39;;;;;;;;;11.75;11.75;;;;;21.13;70.92;101475.00;4915842;28;45632;-79
2022/10/17 12:47:39;;;;;;;;;58.75;45.00;;;;;21.11;71.13;101459.16;4913782;28;46172;-78
2022/10/17 12:50:51;;;;;;;;;26.25;23.50;;;;;21.10;71.22;101460.19;4915707;28;46002;-77
2022/10/17 12:53:22;;;;;;;;;13.50;12.50;;;;;21.09;70.85;101465.66;4915388;28;45730;-74
2022/10/17 12:55:50;;;;;;;;;12.25;10.25;;;;;21.08;71.26;101469.31;4915370;28;45627;-74